createdAt,value
2022-10-18T00:00:05.836Z,8.95
2022-10-18T00:00:48.142Z,9.50
2022-10-18T00:01:29.880Z,9.73
2022-10-18T00:02:11.799Z,9.40
2022-10-18T00:02:53.630Z,9.00
2022-10-18T00:03:36.199Z,8.70
2022-10-18T00:04:17.897Z,8.70
2022-10-18T00:04:59.606Z,9.15
2022-10-18T00:05:41.243Z,8.85
2022-10-18T00:06:22.897Z,9.02
2022-10-18T00:07:04.586Z,8.98
2022-10-18T00:07:46.294Z,9.48
2022-10-18T00:08:28.450Z,8.75
2022-10-18T00:09:10.114Z,9.40
2022-10-18T00:09:51.817Z,9.60
2022-10-18T00:10:33.463Z,10.27
2022-10-18T00:11:15.113Z,9.68
2022-10-18T00:11:57.756Z,9.20
2022-10-18T00:12:39.750Z,9.32
2022-10-18T00:13:21.861Z,8.82
2022-10-18T00:14:04.150Z,9.32
2022-10-18T00:14:50.687Z,10.13
2022-10-18T00:15:32.513Z,10.10
2022-10-18T00:16:18.596Z,9.60
2022-10-18T00:17:00.264Z,9.88
2022-10-18T00:17:41.894Z,8.75
2022-10-18T00:18:23.851Z,8.77
2022-10-18T00:19:05.639Z,9.15
2022-10-18T00:19:48.155Z,9.38
2022-10-18T00:20:30.128Z,9.95
2022-10-18T00:21:14.574Z,10.07
2022-10-18T00:21:56.484Z,10.00
2022-10-18T00:22:40.170Z,10.10
2022-10-18T00:23:21.907Z,9.73
2022-10-18T00:24:04.354Z,9.10
2022-10-18T00:24:46.009Z,9.20
2022-10-18T00:25:27.640Z,8.73
2022-10-18T00:26:18.242Z,8.88
2022-10-18T00:26:59.868Z,9.30
2022-10-18T00:27:41.826Z,9.32
2022-10-18T00:28:23.483Z,9.05
2022-10-18T00:29:06.863Z,9.13
2022-10-18T00:29:51.854Z,9.45
2022-10-18T00:30:33.476Z,9.20
2022-10-18T00:31:24.409Z,9.00
2022-10-18T00:32:06.161Z,8.45
2022-10-18T00:32:47.817Z,8.90
2022-10-18T00:33:29.445Z,9.10
2022-10-18T00:34:14.090Z,8.27
2022-10-18T00:34:55.759Z,9.00
2022-10-18T00:35:37.391Z,8.57
2022-10-18T00:36:19.885Z,8.38
2022-10-18T00:37:01.596Z,8.60
2022-10-18T00:37:43.309Z,8.60
2022-10-18T00:38:24.966Z,9.00
2022-10-18T00:39:08.102Z,9.35
2022-10-18T00:39:50.075Z,9.20
2022-10-18T00:40:31.717Z,8.60
2022-10-18T00:41:17.671Z,8.52
2022-10-18T00:41:59.300Z,8.82
2022-10-18T00:42:40.957Z,9.63
2022-10-18T00:43:22.606Z,9.50
2022-10-18T00:44:07.797Z,9.40
2022-10-18T00:44:49.419Z,8.35
2022-10-18T00:45:31.127Z,8.52
2022-10-18T00:46:12.765Z,9.00
2022-10-18T00:47:01.426Z,8.77
2022-10-18T00:47:50.286Z,9.07
2022-10-18T00:48:31.928Z,9.00
2022-10-18T00:49:35.603Z,8.82
2022-10-18T00:50:18.894Z,10.27
2022-10-18T00:51:00.598Z,10.13
2022-10-18T00:51:57.813Z,8.93
2022-10-18T00:52:54.029Z,9.50
2022-10-18T00:53:36.460Z,8.73
2022-10-18T00:54:20.709Z,8.80
2022-10-18T00:55:03.123Z,9.98
2022-10-18T00:55:45.545Z,10.13
2022-10-18T00:56:27.490Z,9.80
2022-10-18T00:57:09.958Z,9.43
2022-10-18T00:58:40.046Z,10.15
2022-10-18T00:59:22.304Z,10.82
2022-10-18T01:00:09.705Z,10.05
2022-10-18T01:00:51.354Z,10.57
2022-10-18T01:01:33.097Z,10.60
2022-10-18T01:02:18.150Z,10.52
2022-10-18T01:02:59.811Z,10.38
2022-10-18T01:03:42.436Z,9.90
2022-10-18T01:04:24.450Z,10.20
2022-10-18T01:05:06.944Z,10.65
2022-10-18T01:05:49.078Z,10.88
2022-10-18T01:06:32.093Z,9.85
2022-10-18T01:07:50.275Z,9.48
2022-10-18T01:08:57.934Z,10.63
2022-10-18T01:09:51.089Z,10.52
2022-10-18T01:10:44.414Z,10.68
2022-10-18T01:11:43.258Z,11.40
2022-10-18T01:12:46.152Z,10.30
2022-10-18T01:13:58.305Z,10.70
2022-10-18T01:15:16.179Z,11.10
2022-10-18T01:16:08.562Z,11.07
2022-10-18T01:17:11.350Z,11.80
2022-10-18T01:18:30.155Z,10.75
2022-10-18T01:19:53.543Z,10.90
2022-10-18T01:21:02.514Z,10.20
2022-10-18T01:22:10.458Z,10.95
2022-10-18T01:23:10.682Z,10.10
2022-10-18T01:24:29.277Z,9.35
2022-10-18T01:25:29.943Z,10.55
2022-10-18T01:26:48.297Z,10.00
2022-10-18T01:27:48.506Z,10.07
2022-10-18T01:29:05.493Z,10.70
2022-10-18T01:30:31.670Z,9.98
2022-10-18T01:31:27.899Z,10.23
2022-10-18T01:32:17.031Z,10.45
2022-10-18T01:33:05.485Z,10.30
2022-10-18T01:33:53.422Z,10.40
2022-10-18T01:34:38.474Z,10.15
2022-10-18T01:35:29.396Z,10.40
2022-10-18T01:36:24.161Z,10.55
2022-10-18T01:37:11.627Z,11.75
2022-10-18T01:37:57.503Z,11.63
2022-10-18T01:38:40.932Z,11.27
2022-10-18T01:39:27.238Z,10.90
2022-10-18T01:40:10.370Z,10.52
2022-10-18T01:40:53.240Z,11.65
2022-10-18T01:41:38.920Z,11.70
2022-10-18T01:42:21.357Z,10.18
2022-10-18T01:43:04.571Z,10.70
2022-10-18T01:43:50.449Z,10.60
2022-10-18T01:44:33.316Z,10.50
2022-10-18T01:45:16.627Z,11.10
2022-10-18T01:45:59.983Z,10.38
2022-10-18T01:46:44.357Z,10.98
2022-10-18T01:47:28.230Z,11.00
2022-10-18T01:48:12.050Z,10.43
2022-10-18T01:48:55.193Z,10.57
2022-10-18T01:49:36.949Z,11.07
2022-10-18T01:50:31.864Z,10.73
2022-10-18T01:51:13.598Z,10.68
2022-10-18T01:51:55.369Z,11.15
2022-10-18T01:52:50.685Z,10.85
2022-10-18T01:53:34.525Z,11.50
2022-10-18T01:54:22.426Z,11.40
2022-10-18T01:55:04.982Z,10.80
2022-10-18T01:56:16.743Z,11.90
2022-10-18T01:57:03.224Z,12.25
2022-10-18T01:58:05.822Z,12.43
2022-10-18T01:59:24.320Z,11.75
2022-10-18T02:00:31.610Z,12.10
2022-10-18T02:01:29.279Z,11.63
2022-10-18T02:02:22.609Z,11.43
2022-10-18T02:03:23.420Z,12.00
2022-10-18T02:04:21.799Z,12.63
2022-10-18T02:05:21.974Z,11.30
2022-10-18T02:06:17.912Z,11.90
2022-10-18T02:07:07.271Z,11.75
2022-10-18T02:08:33.414Z,11.90
2022-10-18T02:09:39.154Z,12.35
2022-10-18T02:10:42.500Z,12.30
2022-10-18T02:11:26.226Z,11.77
2022-10-18T02:12:11.140Z,12.18
2022-10-18T02:12:55.242Z,11.85
2022-10-18T02:13:41.859Z,12.43
2022-10-18T02:14:25.565Z,12.20
2022-10-18T02:15:09.952Z,12.40
2022-10-18T02:15:57.736Z,12.45
2022-10-18T02:16:45.879Z,13.43
2022-10-18T02:17:29.935Z,12.50
2022-10-18T02:18:16.448Z,13.60
2022-10-18T02:19:15.941Z,13.60
2022-10-18T02:19:59.963Z,13.55
2022-10-18T02:20:42.284Z,13.30
2022-10-18T02:21:25.667Z,13.05
2022-10-18T02:22:09.915Z,13.05
2022-10-18T02:22:55.365Z,13.10
2022-10-18T02:23:39.140Z,13.43
2022-10-18T02:24:23.547Z,13.55
2022-10-18T02:25:10.900Z,13.15
2022-10-18T02:25:53.558Z,13.25
2022-10-18T02:26:35.635Z,13.40
2022-10-18T02:27:17.496Z,13.13
2022-10-18T02:27:59.338Z,13.90
2022-10-18T02:28:41.476Z,13.80
2022-10-18T02:29:23.525Z,14.68
2022-10-18T02:30:06.629Z,14.80
2022-10-18T02:31:05.880Z,13.75
2022-10-18T02:31:49.960Z,14.35
2022-10-18T02:33:04.057Z,14.40
2022-10-18T02:33:48.487Z,15.05
2022-10-18T02:34:35.732Z,14.02
2022-10-18T02:35:29.521Z,13.70
2022-10-18T02:36:18.149Z,13.25
2022-10-18T02:37:01.395Z,14.23
2022-10-18T02:37:44.727Z,13.48
2022-10-18T02:38:27.011Z,14.18
2022-10-18T02:39:14.733Z,14.00
2022-10-18T02:39:56.725Z,15.38
2022-10-18T02:40:38.575Z,14.63
2022-10-18T02:41:27.762Z,15.02
2022-10-18T02:42:11.011Z,15.18
2022-10-18T02:42:58.010Z,15.45
2022-10-18T02:43:39.647Z,14.73
2022-10-18T02:44:21.413Z,13.35
2022-10-18T02:45:04.481Z,13.30
2022-10-18T02:45:46.141Z,13.90
2022-10-18T02:47:14.554Z,14.13
2022-10-18T02:47:56.183Z,12.98
2022-10-18T02:48:37.826Z,13.40
2022-10-18T02:49:19.470Z,13.18
2022-10-18T02:50:01.105Z,13.38
2022-10-18T02:50:42.733Z,13.30
2022-10-18T02:51:25.170Z,14.38
2022-10-18T02:52:07.135Z,14.02
2022-10-18T02:52:48.769Z,13.60
2022-10-18T02:53:30.419Z,13.45
2022-10-18T02:54:12.084Z,14.77
2022-10-18T02:54:53.765Z,14.07
2022-10-18T02:55:35.415Z,13.00
2022-10-18T02:56:17.085Z,14.50
2022-10-18T02:56:58.792Z,13.90
2022-10-18T02:57:40.479Z,13.52
2022-10-18T02:58:22.110Z,12.43
2022-10-18T02:59:05.568Z,12.10
2022-10-18T02:59:47.263Z,13.20
2022-10-18T03:00:28.889Z,13.77
2022-10-18T03:01:10.592Z,13.65
2022-10-18T03:01:52.401Z,14.57
2022-10-18T03:02:34.069Z,13.70
2022-10-18T03:03:15.705Z,14.90
2022-10-18T03:03:57.730Z,14.85
2022-10-18T03:04:39.412Z,14.55
2022-10-18T03:05:21.054Z,13.15
2022-10-18T03:06:02.707Z,13.40
2022-10-18T03:06:44.378Z,13.95
2022-10-18T03:07:26.240Z,13.07
2022-10-18T03:08:07.894Z,12.93
2022-10-18T03:08:49.542Z,14.40
2022-10-18T03:09:31.225Z,14.50
2022-10-18T03:10:12.876Z,13.05
2022-10-18T03:10:54.608Z,13.45
2022-10-18T03:11:36.255Z,14.23
2022-10-18T03:12:17.972Z,14.32
2022-10-18T03:12:59.590Z,14.18
2022-10-18T03:13:41.268Z,14.48
2022-10-18T03:14:23.015Z,13.88
2022-10-18T03:15:05.108Z,13.57
2022-10-18T03:15:48.185Z,12.93
2022-10-18T03:16:29.875Z,13.98
2022-10-18T03:17:11.667Z,14.73
2022-10-18T03:17:53.278Z,14.88
2022-10-18T03:18:34.983Z,14.85
2022-10-18T03:19:16.799Z,14.30
2022-10-18T03:19:58.447Z,13.45
2022-10-18T03:20:40.444Z,13.20
2022-10-18T03:21:22.143Z,14.55
2022-10-18T03:22:04.077Z,13.68
2022-10-18T03:22:45.697Z,13.77
2022-10-18T03:23:27.330Z,15.00
2022-10-18T03:24:09.002Z,14.05
2022-10-18T03:24:50.661Z,13.38
2022-10-18T03:25:32.332Z,13.45
2022-10-18T03:26:14.035Z,13.13
2022-10-18T03:26:55.683Z,14.05
2022-10-18T03:27:37.322Z,14.40
2022-10-18T03:28:19.265Z,14.45
2022-10-18T03:29:00.998Z,12.60
2022-10-18T03:29:42.718Z,12.70
2022-10-18T03:30:24.401Z,12.50
2022-10-18T03:31:06.082Z,13.20
2022-10-18T03:31:47.825Z,13.85
2022-10-18T03:32:29.653Z,13.93
2022-10-18T03:33:11.480Z,14.05
2022-10-18T03:33:53.140Z,12.88
2022-10-18T03:34:34.767Z,13.10
2022-10-18T03:35:16.551Z,13.43
2022-10-18T03:35:58.282Z,13.77
2022-10-18T03:36:41.360Z,14.07
2022-10-18T03:37:23.085Z,14.10
2022-10-18T03:38:04.817Z,13.63
2022-10-18T03:38:46.478Z,13.75
2022-10-18T03:39:28.114Z,13.98
2022-10-18T03:40:10.143Z,13.50
2022-10-18T03:40:51.959Z,13.55
2022-10-18T03:41:33.654Z,13.57
2022-10-18T03:42:15.286Z,14.02
2022-10-18T03:42:56.977Z,13.15
2022-10-18T03:43:38.664Z,13.00
2022-10-18T03:44:20.301Z,12.95
2022-10-18T03:45:01.991Z,13.13
2022-10-18T03:45:43.621Z,12.43
2022-10-18T03:46:25.246Z,13.90
2022-10-18T03:47:06.879Z,12.77
2022-10-18T03:47:48.525Z,12.60
2022-10-18T03:48:30.278Z,13.30
2022-10-18T03:49:12.058Z,13.70
2022-10-18T03:49:56.340Z,13.73
2022-10-18T03:50:39.037Z,14.00
2022-10-18T03:51:20.640Z,13.82
2022-10-18T03:52:02.287Z,13.95
2022-10-18T03:52:43.926Z,14.55
2022-10-18T03:53:25.606Z,14.70
2022-10-18T03:54:07.244Z,14.95
2022-10-18T03:54:48.878Z,13.93
2022-10-18T03:55:30.530Z,13.98
2022-10-18T03:56:12.202Z,13.13
2022-10-18T03:56:53.888Z,13.32
2022-10-18T03:57:35.620Z,13.73
2022-10-18T03:58:17.239Z,12.65
2022-10-18T03:58:58.882Z,12.68
2022-10-18T03:59:40.517Z,12.30
2022-10-18T04:00:22.691Z,12.50
2022-10-18T04:01:04.413Z,12.65
2022-10-18T04:01:46.189Z,13.05
2022-10-18T04:02:27.914Z,13.00
2022-10-18T04:03:09.971Z,12.85
2022-10-18T04:03:51.729Z,12.85
2022-10-18T04:04:33.361Z,12.95
2022-10-18T04:05:15.154Z,12.50
2022-10-18T04:05:57.118Z,12.80
2022-10-18T04:06:38.778Z,13.65
2022-10-18T04:07:20.401Z,14.25
2022-10-18T04:08:02.280Z,13.80
2022-10-18T04:08:43.917Z,12.40
2022-10-18T04:09:25.543Z,12.65
2022-10-18T04:10:07.786Z,13.10
2022-10-18T04:10:49.559Z,12.48
2022-10-18T04:11:31.250Z,12.43
2022-10-18T04:12:12.906Z,11.90
2022-10-18T04:12:54.825Z,12.90
2022-10-18T04:13:36.878Z,13.05
2022-10-18T04:14:18.682Z,13.70
2022-10-18T04:15:00.338Z,13.45
2022-10-18T04:15:42.813Z,13.10
2022-10-18T04:16:24.588Z,12.55
2022-10-18T04:17:06.319Z,12.02
2022-10-18T04:17:47.973Z,11.90
2022-10-18T04:18:29.686Z,12.00
2022-10-18T04:19:11.350Z,12.10
2022-10-18T04:19:53.034Z,13.00
2022-10-18T04:20:34.688Z,12.07
2022-10-18T04:21:16.688Z,12.07
2022-10-18T04:21:58.454Z,13.05
2022-10-18T04:22:40.122Z,12.15
2022-10-18T04:23:21.783Z,11.50
2022-10-18T04:24:03.575Z,12.57
2022-10-18T04:24:45.267Z,12.60
2022-10-18T04:25:27.014Z,13.10
2022-10-18T04:26:08.741Z,13.05
2022-10-18T04:26:50.433Z,12.05
2022-10-18T04:27:32.493Z,12.02
2022-10-18T04:28:14.396Z,12.77
2022-10-18T04:28:56.122Z,12.60
2022-10-18T04:29:37.847Z,12.48
2022-10-18T04:30:19.509Z,12.50
2022-10-18T04:31:01.330Z,12.20
2022-10-18T04:31:43.181Z,12.73
2022-10-18T04:32:26.634Z,12.85
2022-10-18T04:33:08.297Z,12.85
2022-10-18T04:33:49.992Z,12.43
2022-10-18T04:34:31.721Z,12.45
2022-10-18T04:35:13.509Z,11.35
2022-10-18T04:35:55.182Z,11.30
2022-10-18T04:36:37.149Z,11.18
2022-10-18T04:37:18.780Z,12.10
2022-10-18T04:38:00.453Z,13.43
2022-10-18T04:38:42.114Z,12.80
2022-10-18T04:39:23.816Z,12.73
2022-10-18T04:40:06.158Z,12.55
2022-10-18T04:40:47.841Z,12.65
2022-10-18T04:41:29.506Z,12.30
2022-10-18T04:42:11.161Z,12.27
2022-10-18T04:42:52.813Z,12.40
2022-10-18T04:43:34.510Z,12.77
2022-10-18T04:44:16.237Z,13.25
2022-10-18T04:44:57.921Z,12.82
2022-10-18T04:45:39.658Z,12.60
2022-10-18T04:46:21.316Z,12.90
2022-10-18T04:47:02.993Z,12.38
2022-10-18T04:47:44.653Z,11.38
2022-10-18T04:48:26.793Z,11.85
2022-10-18T04:49:08.444Z,11.18
2022-10-18T04:49:50.114Z,10.65
2022-10-18T04:50:31.797Z,11.30
2022-10-18T04:51:13.472Z,11.05
2022-10-18T04:51:55.167Z,13.00
2022-10-18T04:52:36.929Z,12.93
2022-10-18T04:53:19.161Z,11.75
2022-10-18T04:54:00.813Z,11.68
2022-10-18T04:54:42.441Z,11.82
2022-10-18T04:55:24.134Z,12.30
2022-10-18T04:56:06.187Z,12.15
2022-10-18T04:56:47.823Z,12.95
2022-10-18T04:57:29.683Z,13.35
2022-10-18T04:58:11.696Z,14.15
2022-10-18T04:58:53.373Z,12.45
2022-10-18T04:59:35.046Z,12.40
2022-10-18T05:00:16.847Z,12.38
2022-10-18T05:00:58.520Z,12.80
2022-10-18T05:01:40.306Z,13.38
2022-10-18T05:02:22.006Z,12.90
2022-10-18T05:03:03.881Z,13.55
2022-10-18T05:03:45.607Z,14.85
2022-10-18T05:04:27.413Z,15.43
2022-10-18T05:05:11.768Z,15.68
2022-10-18T05:06:03.603Z,15.13
2022-10-18T05:06:45.830Z,14.82
2022-10-18T05:07:27.535Z,14.18
2022-10-18T05:08:09.284Z,13.90
2022-10-18T05:08:50.994Z,14.77
2022-10-18T05:09:33.230Z,14.45
2022-10-18T05:10:14.943Z,14.75
2022-10-18T05:10:56.741Z,13.82
2022-10-18T05:11:38.598Z,15.82
2022-10-18T05:12:20.322Z,16.20
2022-10-18T05:13:02.031Z,15.77
2022-10-18T05:13:46.010Z,15.13
2022-10-18T05:14:30.241Z,13.75
2022-10-18T05:15:11.943Z,13.57
2022-10-18T05:15:53.658Z,14.65
2022-10-18T05:16:35.386Z,14.60
2022-10-18T05:17:17.039Z,14.90
2022-10-18T05:17:58.720Z,15.43
2022-10-18T05:18:40.432Z,14.52
2022-10-18T05:19:22.167Z,13.85
2022-10-18T05:20:04.419Z,13.63
2022-10-18T05:20:46.680Z,14.32
2022-10-18T05:21:28.399Z,14.80
2022-10-18T05:22:10.116Z,14.52
2022-10-18T05:22:51.794Z,14.38
2022-10-18T05:23:33.472Z,15.82
2022-10-18T05:24:15.292Z,15.55
2022-10-18T05:24:57.016Z,14.73
2022-10-18T05:25:39.904Z,14.82
2022-10-18T05:26:21.592Z,15.20
2022-10-18T05:27:03.433Z,15.63
2022-10-18T05:27:45.156Z,16.13
2022-10-18T05:28:42.195Z,16.30
2022-10-18T05:29:24.826Z,15.32
2022-10-18T05:30:07.135Z,14.43
2022-10-18T05:30:48.814Z,14.80
2022-10-18T05:31:30.447Z,14.68
2022-10-18T05:32:12.373Z,13.90
2022-10-18T05:32:54.038Z,15.13
2022-10-18T05:33:36.013Z,14.93
2022-10-18T05:34:20.557Z,14.90
2022-10-18T05:35:02.224Z,15.73
2022-10-18T05:35:43.862Z,14.20
2022-10-18T05:36:26.163Z,14.73
2022-10-18T05:37:07.945Z,15.50
2022-10-18T05:37:49.599Z,14.45
2022-10-18T05:38:31.470Z,13.75
2022-10-18T05:39:13.262Z,15.00
2022-10-18T05:39:54.899Z,14.55
2022-10-18T05:40:39.347Z,13.35
2022-10-18T05:41:21.063Z,14.07
2022-10-18T05:42:02.784Z,14.80
2022-10-18T05:42:44.441Z,15.52
2022-10-18T05:43:29.362Z,14.73
2022-10-18T05:44:11.003Z,15.23
2022-10-18T05:44:52.676Z,14.60
2022-10-18T05:45:34.310Z,14.82
2022-10-18T05:46:16.051Z,15.60
2022-10-18T05:46:57.830Z,16.05
2022-10-18T05:47:39.479Z,15.02
2022-10-18T05:48:21.272Z,16.25
2022-10-18T05:49:02.978Z,14.65
2022-10-18T05:49:44.619Z,14.90
2022-10-18T05:50:26.298Z,16.50
2022-10-18T05:51:07.948Z,14.48
2022-10-18T05:51:49.738Z,14.43
2022-10-18T05:52:31.706Z,15.43
2022-10-18T05:53:35.286Z,14.70
2022-10-18T05:54:15.460Z,14.02
2022-10-18T05:54:57.090Z,14.80
2022-10-18T05:55:38.777Z,14.32
2022-10-18T05:56:20.548Z,15.77
2022-10-18T05:57:02.223Z,16.13
2022-10-18T05:57:43.897Z,14.35
2022-10-18T05:58:25.548Z,13.25
2022-10-18T05:59:11.947Z,13.20
2022-10-18T05:59:53.827Z,14.93
2022-10-18T06:00:38.586Z,15.40
2022-10-18T06:01:20.768Z,15.60
2022-10-18T06:02:02.733Z,15.25
2022-10-18T06:02:44.567Z,14.88
2022-10-18T06:03:27.594Z,13.20
2022-10-18T06:04:12.602Z,14.10
2022-10-18T06:04:54.239Z,14.50
2022-10-18T06:05:36.069Z,14.93
2022-10-18T06:06:17.775Z,14.40
2022-10-18T06:06:59.397Z,14.77
2022-10-18T06:07:41.009Z,15.70
2022-10-18T06:08:22.649Z,15.13
2022-10-18T06:09:06.184Z,14.95
2022-10-18T06:09:47.809Z,14.65
2022-10-18T06:10:29.449Z,14.75
2022-10-18T06:11:15.097Z,15.90
2022-10-18T06:11:57.634Z,15.85
2022-10-18T06:12:39.443Z,14.77
2022-10-18T06:13:21.141Z,14.88
2022-10-18T06:14:03.120Z,15.15
2022-10-18T06:14:44.876Z,14.88
2022-10-18T06:15:26.655Z,14.30
2022-10-18T06:16:09.368Z,15.00
2022-10-18T06:16:51.073Z,15.57
2022-10-18T06:17:32.770Z,15.73
2022-10-18T06:18:14.482Z,14.57
2022-10-18T06:18:57.699Z,15.02
2022-10-18T06:19:39.423Z,15.82
2022-10-18T06:20:21.070Z,14.80
2022-10-18T06:21:02.704Z,13.95
2022-10-18T06:21:44.439Z,15.27
2022-10-18T06:22:26.078Z,15.55
2022-10-18T06:23:07.738Z,13.15
2022-10-18T06:23:53.731Z,13.50
2022-10-18T06:24:35.428Z,14.57
2022-10-18T06:25:17.139Z,14.48
2022-10-18T06:26:00.543Z,14.88
2022-10-18T06:26:42.278Z,15.18
2022-10-18T06:27:23.911Z,14.00
2022-10-18T06:28:07.964Z,13.80
2022-10-18T06:28:52.082Z,14.15
2022-10-18T06:29:33.794Z,14.63
2022-10-18T06:30:15.670Z,13.88
2022-10-18T06:30:58.195Z,14.43
2022-10-18T06:31:39.965Z,14.07
2022-10-18T06:32:21.595Z,14.10
2022-10-18T06:33:03.249Z,15.15
2022-10-18T06:33:46.046Z,13.93
2022-10-18T06:34:27.661Z,14.15
2022-10-18T06:35:09.634Z,14.75
2022-10-18T06:35:59.442Z,14.63
2022-10-18T06:36:41.126Z,14.38
2022-10-18T06:37:22.801Z,14.60
2022-10-18T06:38:04.482Z,15.02
2022-10-18T06:38:46.208Z,14.75
2022-10-18T06:39:28.091Z,15.85
2022-10-18T06:40:10.670Z,16.30
2022-10-18T06:40:52.322Z,16.40
2022-10-18T06:41:34.101Z,15.57
2022-10-18T06:42:17.999Z,16.38
2022-10-18T06:43:19.482Z,17.02
2022-10-18T06:44:07.162Z,15.05
2022-10-18T06:44:49.778Z,15.70
2022-10-18T06:45:31.466Z,16.25
2022-10-18T06:46:13.184Z,16.02
2022-10-18T06:46:54.863Z,15.20
2022-10-18T06:47:36.526Z,16.60
2022-10-18T06:49:02.005Z,15.20
2022-10-18T06:49:43.661Z,15.40
2022-10-18T06:50:25.418Z,15.48
2022-10-18T06:51:08.673Z,16.17
2022-10-18T06:51:50.438Z,16.65
2022-10-18T06:52:32.337Z,16.33
2022-10-18T06:53:14.150Z,16.48
2022-10-18T06:54:13.332Z,16.60
2022-10-18T06:54:57.486Z,15.40
2022-10-18T06:55:39.192Z,16.53
2022-10-18T06:56:20.929Z,16.05
2022-10-18T06:57:03.167Z,16.42
2022-10-18T06:57:44.782Z,14.98
2022-10-18T06:58:26.485Z,14.95
2022-10-18T06:59:08.310Z,14.35
2022-10-18T06:59:51.152Z,14.60
2022-10-18T07:00:32.846Z,14.35
2022-10-18T07:01:16.306Z,14.80
2022-10-18T07:01:58.095Z,15.30
2022-10-18T07:02:41.241Z,14.20
2022-10-18T07:03:23.373Z,13.82
2022-10-18T07:04:05.026Z,14.82
2022-10-18T07:04:46.674Z,15.05
2022-10-18T07:05:28.509Z,14.65
2022-10-18T07:06:12.650Z,14.85
2022-10-18T07:06:54.475Z,15.18
2022-10-18T07:07:36.329Z,14.98
2022-10-18T07:08:18.527Z,15.68
2022-10-18T07:09:02.840Z,15.13
2022-10-18T07:09:45.991Z,14.90
2022-10-18T07:10:27.791Z,15.13
2022-10-18T07:11:15.578Z,15.77
2022-10-18T07:11:57.245Z,14.52
2022-10-18T07:12:39.144Z,14.75
2022-10-18T07:13:32.330Z,14.88
2022-10-18T07:14:16.522Z,15.05
2022-10-18T07:14:58.328Z,14.70
2022-10-18T07:15:40.021Z,13.95
2022-10-18T07:16:21.823Z,14.45
2022-10-18T07:17:03.476Z,14.27
2022-10-18T07:17:49.066Z,14.63
2022-10-18T07:18:30.747Z,15.32
2022-10-18T07:19:12.480Z,14.70
2022-10-18T07:19:54.144Z,13.98
2022-10-18T07:20:35.780Z,14.73
2022-10-18T07:21:20.447Z,15.00
2022-10-18T07:22:02.076Z,14.23
2022-10-18T07:22:43.725Z,14.75
2022-10-18T07:23:25.458Z,14.10
2022-10-18T07:24:07.183Z,14.52
2022-10-18T07:24:48.863Z,14.52
2022-10-18T07:25:31.184Z,12.95
2022-10-18T07:26:27.126Z,14.38
2022-10-18T07:27:08.875Z,14.02
2022-10-18T07:27:50.539Z,14.80
2022-10-18T07:28:32.261Z,14.77
2022-10-18T07:29:14.268Z,14.25
2022-10-18T07:29:56.051Z,14.20
2022-10-18T07:30:37.703Z,13.93
2022-10-18T07:31:19.377Z,15.05
2022-10-18T07:32:01.027Z,15.27
2022-10-18T07:32:42.699Z,16.02
2022-10-18T07:33:25.891Z,17.65
2022-10-18T07:34:10.762Z,16.88
2022-10-18T07:34:52.471Z,17.80
2022-10-18T07:35:34.121Z,18.00
2022-10-18T07:36:16.616Z,20.00
2022-10-18T07:36:58.281Z,19.05
2022-10-18T07:37:39.941Z,19.63
2022-10-18T07:38:22.707Z,19.65
2022-10-18T07:39:05.139Z,18.52
2022-10-18T07:39:46.932Z,18.98
2022-10-18T07:40:28.790Z,19.63
2022-10-18T07:41:12.069Z,18.00
2022-10-18T07:41:54.192Z,18.20
2022-10-18T07:42:36.023Z,18.80
2022-10-18T07:43:17.693Z,19.02
2022-10-18T07:43:59.657Z,19.98
2022-10-18T07:44:41.302Z,21.33
2022-10-18T07:45:22.986Z,21.25
2022-10-18T07:46:06.055Z,21.75
2022-10-18T07:46:47.750Z,22.45
2022-10-18T07:47:31.347Z,23.55
2022-10-18T07:48:15.932Z,23.83
2022-10-18T07:48:59.525Z,24.27
2022-10-18T07:49:41.324Z,24.95
2022-10-18T07:50:23.955Z,24.63
2022-10-18T07:51:06.009Z,25.38
2022-10-18T07:51:47.720Z,25.40
2022-10-18T07:52:29.428Z,22.80
2022-10-18T07:53:11.160Z,22.30
2022-10-18T07:53:52.810Z,22.25
2022-10-18T07:54:34.466Z,23.88
2022-10-18T07:55:16.206Z,22.63
2022-10-18T07:56:03.386Z,22.80
2022-10-18T07:56:47.549Z,23.60
2022-10-18T07:57:29.404Z,23.27
2022-10-18T07:58:11.898Z,23.65
2022-10-18T07:58:55.743Z,22.38
2022-10-18T07:59:38.751Z,22.63
2022-10-18T08:00:20.442Z,21.95
2022-10-18T08:01:07.227Z,23.25
2022-10-18T08:01:48.981Z,23.73
2022-10-18T08:02:30.668Z,22.83
2022-10-18T08:03:12.427Z,22.35
2022-10-18T08:03:54.669Z,23.95
2022-10-18T08:04:36.333Z,23.00
2022-10-18T08:05:17.973Z,22.40
2022-10-18T08:05:59.747Z,23.50
2022-10-18T08:06:41.439Z,25.08
2022-10-18T08:07:23.150Z,24.73
2022-10-18T08:08:07.881Z,23.30
2022-10-18T08:08:50.310Z,22.38
2022-10-18T08:09:32.034Z,22.70
2022-10-18T08:10:13.787Z,22.98
2022-10-18T08:10:55.773Z,22.13
2022-10-18T08:11:37.427Z,23.35
2022-10-18T08:12:19.123Z,23.45
2022-10-18T08:13:00.836Z,24.33
2022-10-18T08:13:43.528Z,23.67
2022-10-18T08:14:25.284Z,22.77
2022-10-18T08:15:07.396Z,22.88
2022-10-18T08:15:49.111Z,23.73
2022-10-18T08:17:14.160Z,23.65
2022-10-18T08:17:55.819Z,23.08
2022-10-18T08:18:38.352Z,22.42
2022-10-18T08:19:20.217Z,21.67
2022-10-18T08:20:18.972Z,22.27
2022-10-18T08:21:05.759Z,21.50
2022-10-18T08:21:47.484Z,21.17
2022-10-18T08:22:29.140Z,21.20
2022-10-18T08:23:10.986Z,20.63
2022-10-18T08:23:53.919Z,20.00
2022-10-18T08:24:35.642Z,20.70
2022-10-18T08:25:17.569Z,21.25
2022-10-18T08:26:08.256Z,21.20
2022-10-18T08:26:50.514Z,20.85
2022-10-18T08:27:32.454Z,21.15
2022-10-18T08:28:14.502Z,22.10
2022-10-18T08:29:17.580Z,21.45
2022-10-18T08:29:59.738Z,22.20
2022-10-18T08:30:41.475Z,22.17
2022-10-18T08:31:23.306Z,21.27
2022-10-18T08:32:05.215Z,22.00
2022-10-18T08:32:46.847Z,22.70
2022-10-18T08:33:28.570Z,24.73
2022-10-18T08:34:10.203Z,23.55
2022-10-18T08:34:52.159Z,22.90
2022-10-18T08:35:33.845Z,23.15
2022-10-18T08:36:17.075Z,23.70
2022-10-18T08:36:58.923Z,24.25
2022-10-18T08:37:40.696Z,24.63
2022-10-18T08:38:22.400Z,24.35
2022-10-18T08:39:04.248Z,24.88
2022-10-18T08:39:45.914Z,25.70
2022-10-18T08:40:28.745Z,25.55
2022-10-18T08:41:35.294Z,24.88
2022-10-18T08:42:41.659Z,23.88
2022-10-18T08:43:50.887Z,23.70
2022-10-18T08:44:33.265Z,25.05
2022-10-18T08:45:30.130Z,22.27
2022-10-18T08:46:17.512Z,23.13
2022-10-18T08:47:11.778Z,22.50
2022-10-18T08:47:57.224Z,24.23
2022-10-18T08:48:50.388Z,22.88
2022-10-18T08:49:49.755Z,23.60
2022-10-18T08:50:36.586Z,22.90
2022-10-18T08:51:33.189Z,24.35
2022-10-18T08:52:26.608Z,25.83
2022-10-18T08:53:17.286Z,26.30
2022-10-18T08:54:14.146Z,26.30
2022-10-18T08:55:36.394Z,27.27
2022-10-18T08:56:24.011Z,23.98
2022-10-18T08:57:13.687Z,24.58
2022-10-18T08:57:58.233Z,26.42
2022-10-18T08:58:41.962Z,25.52
2022-10-18T08:59:25.511Z,27.10
2022-10-18T09:00:23.553Z,29.40
2022-10-18T09:01:32.659Z,27.85
2022-10-18T09:02:33.344Z,27.77
2022-10-18T09:03:22.954Z,29.30
2022-10-18T09:04:28.811Z,27.25
2022-10-18T09:05:19.678Z,28.45
2022-10-18T09:06:09.957Z,29.58
2022-10-18T09:06:57.837Z,30.88
2022-10-18T09:07:42.351Z,32.50
2022-10-18T09:08:35.855Z,32.45
2022-10-18T09:09:28.469Z,32.28
2022-10-18T09:10:47.545Z,33.30
2022-10-18T09:11:56.886Z,32.45
2022-10-18T09:13:17.465Z,32.25
2022-10-18T09:14:31.957Z,33.63
2022-10-18T09:15:42.599Z,32.78
2022-10-18T09:16:56.642Z,33.45
2022-10-18T09:18:14.474Z,32.33
2022-10-18T09:19:12.181Z,34.43
2022-10-18T09:20:03.097Z,32.20
2022-10-18T09:20:59.377Z,31.60
2022-10-18T09:21:53.383Z,33.30
2022-10-18T09:23:10.013Z,33.03
2022-10-18T09:24:14.761Z,33.58
2022-10-18T09:25:11.503Z,34.58
2022-10-18T09:26:20.598Z,34.03
2022-10-18T09:27:10.328Z,36.80
2022-10-18T09:28:26.898Z,36.72
2022-10-18T09:29:49.327Z,36.33
2022-10-18T09:30:53.845Z,35.50
2022-10-18T09:31:44.583Z,35.97
2022-10-18T09:32:35.454Z,35.45
2022-10-18T09:33:40.598Z,34.25
2022-10-18T09:34:34.151Z,36.70
2022-10-18T09:35:18.991Z,35.88
2022-10-18T09:36:10.478Z,36.90
2022-10-18T09:36:52.979Z,37.28
2022-10-18T09:37:35.031Z,35.30
2022-10-18T09:38:22.636Z,35.15
2022-10-18T09:39:16.608Z,36.15
2022-10-18T09:40:18.174Z,36.03
2022-10-18T09:41:48.567Z,35.35
2022-10-18T09:42:37.718Z,33.78
2022-10-18T09:43:24.729Z,34.85
2022-10-18T09:44:46.242Z,34.90
2022-10-18T09:45:31.890Z,36.50
2022-10-18T09:46:15.366Z,35.50
2022-10-18T09:47:05.472Z,34.95
2022-10-18T09:48:12.645Z,33.33
2022-10-18T09:49:03.109Z,36.22